Time;durP1;ratioP1;P1;durP2;ratioP2;P2;SDS_P1;SDS_P2;PMS_P1;PMS_P2;Temp;Humidity;BMP_temperature;BMP_pressure;BME280_temperature;BME280_humidity;BME280_pressure;Samples;Min_cycle;Max_cycle;Signal;HPM_P1;HPM_P2
2021/08/11 00:02:17;;;;;;;3.95;2.97;;;17.10;88.80;;;;;;4984627;28;20034;-65
2021/08/11 00:04:42;;;;;;;4.63;3.67;;;17.10;88.90;;;;;;4975692;28;20084;-66
2021/08/11 00:07:08;;;;;;;4.30;3.15;;;17.20;89.10;;;;;;4987365;28;20031;-67
2021/08/11 00:09:34;;;;;;;4.78;3.03;;;17.30;89.20;;;;;;4985450;28;20545;-66
2021/08/11 00:12:00;;;;;;;7.78;3.25;;;17.30;89.20;;;;;;4980368;28;20042;-64
2021/08/11 00:14:26;;;;;;;6.85;3.08;;;17.30;89.00;;;;;;4970138;28;21787;-69
2021/08/11 00:16:51;;;;;;;3.20;2.38;;;17.40;89.20;;;;;;4986131;28;20065;-66
2021/08/11 00:19:17;;;;;;;4.65;3.25;;;17.40;89.30;;;;;;4975955;28;20481;-66
2021/08/11 00:21:43;;;;;;;3.97;2.55;;;17.40;89.40;;;;;;4987367;28;20026;-65
2021/08/11 00:24:09;;;;;;;3.17;2.50;;;17.50;89.70;;;;;;4988260;28;20026;-66
2021/08/11 00:26:34;;;;;;;5.10;3.10;;;17.50;89.90;;;;;;4983695;28;20113;-70
2021/08/11 00:29:00;;;;;;;4.18;3.15;;;17.50;90.00;;;;;;4981012;28;20423;-72
2021/08/11 00:31:25;;;;;;;5.22;2.97;;;17.50;90.00;;;;;;4986492;28;20026;-67
2021/08/11 00:33:51;;;;;;;5.40;3.00;;;17.60;90.00;;;;;;4990366;28;20559;-67
2021/08/11 00:36:16;;;;;;;3.83;2.78;;;17.50;89.70;;;;;;4976987;28;20033;-70
2021/08/11 00:38:42;;;;;;;9.05;3.10;;;17.50;89.90;;;;;;4986035;28;20026;-65
2021/08/11 00:41:08;;;;;;;4.53;3.08;;;17.40;90.00;;;;;;4966026;28;20545;-65
2021/08/11 00:43:33;;;;;;;3.35;3.03;;;17.40;90.00;;;;;;4991734;28;20046;-66
2021/08/11 00:45:59;;;;;;;8.50;2.90;;;17.40;90.00;;;;;;4993082;28;20026;-70
2021/08/11 00:48:26;;;;;;;6.60;3.35;;;17.40;90.00;;;;;;4991482;28;20177;-65
2021/08/11 00:50:52;;;;;;;5.38;3.20;;;17.40;89.90;;;;;;4994057;28;20033;-66
2021/08/11 00:53:22;;;;;;;5.40;3.47;;;17.50;90.00;;;;;;4991921;28;20026;-65
2021/08/11 00:55:50;;;;;;;6.38;3.92;;;17.40;90.00;;;;;;4986535;28;20019;-66
2021/08/11 00:58:19;;;;;;;8.50;4.95;;;17.40;90.20;;;;;;4991406;28;20030;-71
2021/08/11 01:00:47;;;;;;;5.82;3.97;;;17.30;90.10;;;;;;4976922;28;20136;-65
2021/08/11 01:03:17;;;;;;;6.90;4.45;;;17.20;89.80;;;;;;4993583;28;20026;-65
2021/08/11 01:05:44;;;;;;;6.50;4.50;;;17.10;90.00;;;;;;4975249;28;20058;-66
2021/08/11 01:08:11;;;;;;;7.22;4.57;;;17.00;90.10;;;;;;4990804;28;20173;-68
2021/08/11 01:10:37;;;;;;;6.22;4.45;;;16.90;90.10;;;;;;4984753;28;20222;-71
2021/08/11 01:13:03;;;;;;;8.00;4.55;;;16.80;90.10;;;;;;4975509;28;20080;-65
2021/08/11 01:15:29;;;;;;;7.57;4.40;;;16.80;90.20;;;;;;4985460;28;20486;-65
2021/08/11 01:17:55;;;;;;;9.63;4.25;;;16.70;90.30;;;;;;4992842;28;20129;-68
2021/08/11 01:20:20;;;;;;;6.40;4.82;;;16.60;90.30;;;;;;4986527;28;20035;-66
2021/08/11 01:22:50;;;;;;;6.07;4.25;;;16.50;90.30;;;;;;4998972;28;20031;-69
2021/08/11 01:25:28;;;;;;;6.50;4.43;;;16.50;90.50;;;;;;4974949;28;20026;-67
2021/08/11 01:28:15;;;;;;;5.57;4.47;;;16.50;90.70;;;;;;4990117;28;20026;-66
2021/08/11 01:30:53;;;;;;;6.75;4.55;;;16.40;90.60;;;;;;4984080;28;20030;-66
2021/08/11 01:33:45;;;;;;;5.13;4.40;;;16.40;90.70;;;;;;4963818;28;20368;-69
2021/08/11 01:36:37;;;;;;;8.32;4.60;;;16.40;90.80;;;;;;4992091;28;20026;-69
2021/08/11 01:39:07;;;;;;;6.50;4.22;;;16.40;90.90;;;;;;4959915;28;20046;-69
2021/08/11 01:41:37;;;;;;;8.52;4.20;;;16.30;90.80;;;;;;4993340;28;20070;-67
2021/08/11 01:44:06;;;;;;;7.07;4.30;;;16.30;90.90;;;;;;4975510;28;20022;-70
2021/08/11 01:46:36;;;;;;;10.32;4.15;;;16.40;91.20;;;;;;4991724;28;20417;-65
2021/08/11 01:49:03;;;;;;;7.50;3.95;;;16.30;90.90;;;;;;5056802;23;20065;-67
2021/08/11 01:51:29;;;;;;;7.43;4.18;;;16.30;91.00;;;;;;4986223;28;20096;-69
2021/08/11 01:53:55;;;;;;;9.68;4.30;;;16.30;91.10;;;;;;4996512;28;20023;-69
2021/08/11 01:56:22;;;;;;;4.65;4.05;;;16.30;91.10;;;;;;4987925;28;20371;-70
2021/08/11 01:58:48;;;;;;;5.07;4.20;;;16.30;91.10;;;;;;4968647;28;20042;-69
2021/08/11 02:01:14;;;;;;;5.93;4.00;;;16.30;91.10;;;;;;4973614;28;20074;-69
2021/08/11 02:03:42;;;;;;;7.68;4.38;;;16.30;91.10;;;;;;4959643;28;20155;-66
2021/08/11 02:06:07;;;;;;;5.63;4.25;;;16.30;91.10;;;;;;4954023;28;20042;-70
2021/08/11 02:08:34;;;;;;;6.53;3.92;;;16.30;91.10;;;;;;4958346;28;20130;-69
2021/08/11 02:11:01;;;;;;;8.63;4.32;;;16.30;91.10;;;;;;4960574;28;20023;-69
2021/08/11 02:13:27;;;;;;;6.75;3.78;;;16.20;91.10;;;;;;4972775;28;20058;-67
2021/08/11 02:15:53;;;;;;;7.47;4.40;;;16.30;91.20;;;;;;4972529;28;20423;-67
2021/08/11 02:18:19;;;;;;;6.53;3.90;;;16.30;91.30;;;;;;4960869;28;20078;-69
2021/08/11 02:20:46;;;;;;;5.30;4.35;;;16.30;91.30;;;;;;4980614;28;20072;-69
2021/08/11 02:23:12;;;;;;;4.55;3.95;;;16.30;91.40;;;;;;4971246;28;20115;-70
2021/08/11 02:25:47;;;;;;;8.68;4.00;;;16.30;91.40;;;;;;4972233;28;20133;-70
2021/08/11 02:28:19;;;;;;;6.32;3.85;;;16.30;91.30;;;;;;4971498;28;20034;-69
2021/08/11 02:30:54;;;;;;;6.57;3.70;;;16.30;91.30;;;;;;4972372;28;20035;-69
2021/08/11 02:33:40;;;;;;;4.50;3.47;;;16.30;91.20;;;;;;4963929;28;20027;-70
2021/08/11 02:36:13;;;;;;;4.07;3.40;;;16.20;91.30;;;;;;4965927;28;20028;-69
2021/08/11 02:38:41;;;;;;;4.85;3.45;;;16.20;91.20;;;;;;4971299;28;20367;-69
2021/08/11 02:41:20;;;;;;;6.32;3.65;;;16.20;91.30;;;;;;4966230;28;20031;-71
2021/08/11 02:44:01;;;;;;;4.93;3.38;;;16.10;91.30;;;;;;4970827;28;20027;-70
2021/08/11 02:46:28;;;;;;;4.90;3.80;;;16.10;91.50;;;;;;4970902;28;20093;-67
2021/08/11 02:48:59;;;;;;;6.43;3.53;;;16.10;91.40;;;;;;4960129;28;20027;-69
2021/08/11 02:51:29;;;;;;;6.20;3.58;;;16.10;91.50;;;;;;4984521;28;20025;-69
2021/08/11 02:53:55;;;;;;;4.72;3.53;;;16.10;91.40;;;;;;4955815;28;20439;-69
2021/08/11 02:56:21;;;;;;;4.43;3.00;;;16.10;91.30;;;;;;4956802;28;20085;-69
2021/08/11 02:58:47;;;;;;;5.65;3.28;;;16.00;91.30;;;;;;4971063;28;20040;-67
2021/08/11 03:01:13;;;;;;;5.55;3.38;;;16.00;91.30;;;;;;4971816;28;20138;-69
2021/08/11 03:03:40;;;;;;;5.43;3.38;;;16.10;91.30;;;;;;4970951;28;20462;-69
2021/08/11 03:06:06;;;;;;;9.27;3.28;;;16.10;91.30;;;;;;4967133;28;20495;-69
2021/08/11 03:08:35;;;;;;;5.95;3.60;;;16.00;91.20;;;;;;4956464;28;20027;-70
2021/08/11 03:11:02;;;;;;;6.28;3.15;;;15.90;91.10;;;;;;4965136;28;20022;-69
2021/08/11 03:13:28;;;;;;;3.92;3.20;;;15.90;91.20;;;;;;4971870;28;20507;-68
2021/08/11 03:15:54;;;;;;;5.72;3.80;;;15.80;91.30;;;;;;4968674;28;20027;-69
2021/08/11 03:18:20;;;;;;;4.25;3.30;;;15.70;91.30;;;;;;4968187;28;20430;-69
2021/08/11 03:20:46;;;;;;;3.42;3.13;;;15.70;91.40;;;;;;4963945;28;20027;-69
2021/08/11 03:23:14;;;;;;;5.15;3.25;;;15.80;91.50;;;;;;4963170;28;20054;-69
2021/08/11 03:25:41;;;;;;;5.68;3.63;;;15.80;91.50;;;;;;4958584;28;20026;-69
2021/08/11 03:28:08;;;;;;;4.03;3.40;;;15.90;91.60;;;;;;4971616;28;20054;-69
2021/08/11 03:30:35;;;;;;;5.00;3.72;;;15.90;91.60;;;;;;4968662;28;20023;-69
2021/08/11 03:33:01;;;;;;;4.35;3.33;;;15.80;91.70;;;;;;4971416;28;20038;-69
2021/08/11 03:35:27;;;;;;;4.97;3.47;;;15.90;91.70;;;;;;4964341;28;20015;-69
2021/08/11 03:37:52;;;;;;;5.65;3.20;;;15.90;91.70;;;;;;4971925;28;20049;-69
2021/08/11 03:40:18;;;;;;;3.97;3.50;;;15.90;91.60;;;;;;4967842;28;20046;-69
2021/08/11 03:42:43;;;;;;;5.30;3.47;;;15.90;91.60;;;;;;4955114;28;20058;-70
2021/08/11 03:45:10;;;;;;;4.35;3.50;;;15.80;91.60;;;;;;4966445;28;20045;-67
2021/08/11 03:47:40;;;;;;;4.70;3.50;;;15.80;91.60;;;;;;4969062;28;20034;-67
2021/08/11 03:50:06;;;;;;;5.38;3.47;;;15.70;91.60;;;;;;4963104;28;20034;-67
2021/08/11 03:52:31;;;;;;;5.28;3.50;;;15.70;91.60;;;;;;4971601;28;20215;-69
2021/08/11 03:54:57;;;;;;;6.50;3.67;;;15.70;91.70;;;;;;4968457;28;20023;-67
2021/08/11 03:57:22;;;;;;;3.97;3.58;;;15.70;91.70;;;;;;4965090;28;20035;-69
2021/08/11 03:59:48;;;;;;;4.65;3.55;;;15.70;91.70;;;;;;4958996;28;20097;-69
2021/08/11 04:02:13;;;;;;;4.95;3.60;;;15.70;91.70;;;;;;4962950;28;20038;-69
2021/08/11 04:04:40;;;;;;;4.38;3.85;;;15.70;91.80;;;;;;4956133;28;20073;-67
2021/08/11 04:07:05;;;;;;;6.93;3.63;;;15.70;91.80;;;;;;4967535;28;20034;-67
2021/08/11 04:09:31;;;;;;;5.80;4.07;;;15.70;91.90;;;;;;4968496;28;20023;-70
2021/08/11 04:11:56;;;;;;;6.40;3.50;;;15.80;91.90;;;;;;4970973;28;20081;-70
2021/08/11 04:14:22;;;;;;;5.95;3.55;;;15.70;91.80;;;;;;4972332;28;20031;-67
2021/08/11 04:16:48;;;;;;;4.03;3.60;;;15.70;91.80;;;;;;4969989;28;20022;-68
2021/08/11 04:19:13;;;;;;;9.50;3.70;;;15.70;91.80;;;;;;4968498;28;20043;-67
2021/08/11 04:21:39;;;;;;;6.90;3.70;;;15.70;91.80;;;;;;4977187;28;20038;-67
2021/08/11 04:24:04;;;;;;;8.85;3.47;;;15.70;91.80;;;;;;4976793;28;20460;-67
2021/08/11 04:26:30;;;;;;;5.10;4.03;;;15.70;91.90;;;;;;4972882;28;20035;-67
2021/08/11 04:28:56;;;;;;;5.13;3.58;;;15.70;92.00;;;;;;4972877;28;20030;-69
2021/08/11 04:31:21;;;;;;;15.43;6.60;;;15.80;92.00;;;;;;4968532;28;20098;-67
2021/08/11 04:33:47;;;;;;;18.88;8.65;;;15.80;91.90;;;;;;4963321;28;20484;-67
2021/08/11 04:36:12;;;;;;;12.93;6.65;;;15.80;91.90;;;;;;4968939;28;20667;-70
2021/08/11 04:38:38;;;;;;;10.20;6.13;;;15.80;91.90;;;;;;4975775;28;20454;-68
2021/08/11 04:41:03;;;;;;;13.98;6.53;;;15.80;92.00;;;;;;4965337;28;20400;-68
2021/08/11 04:43:29;;;;;;;9.65;5.63;;;15.80;92.00;;;;;;4976960;28;20069;-67
2021/08/11 04:45:54;;;;;;;10.82;5.80;;;15.90;92.10;;;;;;4974155;28;20026;-68
2021/08/11 04:48:20;;;;;;;9.20;3.78;;;15.90;92.00;;;;;;4966169;28;20043;-67
2021/08/11 04:50:45;;;;;;;7.35;3.92;;;15.90;91.90;;;;;;4975651;28;20034;-68
2021/08/11 04:53:11;;;;;;;6.38;4.00;;;15.90;91.80;;;;;;4976366;28;20037;-67
2021/08/11 04:55:37;;;;;;;4.20;3.53;;;15.80;91.80;;;;;;4974582;28;20448;-67
2021/08/11 04:58:02;;;;;;;7.75;3.60;;;15.80;91.90;;;;;;4976432;28;20057;-67
2021/08/11 05:00:28;;;;;;;4.95;3.60;;;15.80;92.00;;;;;;4972010;28;20035;-68
2021/08/11 05:02:54;;;;;;;4.05;3.55;;;15.80;92.00;;;;;;4972082;28;20109;-67
2021/08/11 05:05:20;;;;;;;5.10;3.83;;;15.90;92.20;;;;;;4974565;28;20460;-68
2021/08/11 05:07:45;;;;;;;9.55;4.43;;;15.90;92.10;;;;;;4977343;28;20403;-70
2021/08/11 05:10:11;;;;;;;4.88;3.50;;;15.90;92.10;;;;;;4968637;28;20027;-67
2021/08/11 05:12:37;;;;;;;6.13;3.60;;;15.90;92.00;;;;;;4965640;28;20027;-67
2021/08/11 05:15:04;;;;;;;7.35;4.05;;;15.90;92.00;;;;;;4969343;28;20468;-68
2021/08/11 05:17:30;;;;;;;5.80;3.55;;;15.90;92.10;;;;;;4972529;28;20110;-68
2021/08/11 05:19:56;;;;;;;8.15;3.75;;;15.80;92.00;;;;;;4973827;28;20118;-67
2021/08/11 05:22:22;;;;;;;7.07;4.07;;;15.80;92.10;;;;;;4971978;28;20081;-68
2021/08/11 05:24:48;;;;;;;5.60;3.60;;;15.80;92.10;;;;;;4968266;28;20033;-67
2021/08/11 05:27:15;;;;;;;15.93;11.80;;;15.90;92.20;;;;;;4967109;28;20109;-68
2021/08/11 05:29:42;;;;;;;6.55;5.10;;;15.90;92.20;;;;;;4970407;28;20058;-69
2021/08/11 05:32:09;;;;;;;5.78;4.30;;;16.00;92.30;;;;;;4976589;28;20018;-68
2021/08/11 05:34:34;;;;;;;6.95;4.50;;;16.10;92.30;;;;;;4972986;28;20069;-70
2021/08/11 05:37:00;;;;;;;8.73;4.32;;;16.10;92.30;;;;;;4973434;28;20506;-68
2021/08/11 05:39:25;;;;;;;5.47;4.03;;;16.10;92.30;;;;;;4973459;28;20026;-69
2021/08/11 05:41:51;;;;;;;6.30;3.97;;;16.10;92.30;;;;;;4974326;28;20026;-69
2021/08/11 05:44:17;;;;;;;6.35;4.05;;;16.10;92.30;;;;;;4974262;28;20031;-71
2021/08/11 05:46:42;;;;;;;5.38;3.88;;;16.20;92.40;;;;;;4973561;28;20030;-69
2021/08/11 05:49:08;;;;;;;7.20;4.45;;;16.20;92.40;;;;;;4973797;28;20026;-68
2021/08/11 05:51:36;;;;;;;7.97;4.13;;;16.20;92.30;;;;;;4969771;28;20042;-68
2021/08/11 05:54:02;;;;;;;6.45;3.97;;;16.20;92.30;;;;;;4971229;28;20027;-69
2021/08/11 05:56:28;;;;;;;7.75;4.60;;;16.20;92.50;;;;;;4972204;28;20455;-69
2021/08/11 05:58:54;;;;;;;9.90;4.28;;;16.20;92.20;;;;;;4972807;28;20033;-68
2021/08/11 06:01:20;;;;;;;5.20;4.18;;;16.20;92.20;;;;;;4974791;28;20031;-69
2021/08/11 06:03:46;;;;;;;7.35;4.32;;;16.20;92.30;;;;;;4980964;28;20026;-69
2021/08/11 06:06:13;;;;;;;6.60;4.93;;;16.20;92.30;;;;;;4972869;28;20054;-68
2021/08/11 06:08:39;;;;;;;5.57;4.10;;;16.20;92.40;;;;;;4968597;28;20026;-68
2021/08/11 06:11:05;;;;;;;8.23;5.00;;;16.20;92.40;;;;;;4954847;29;20023;-68
2021/08/11 06:13:30;;;;;;;6.15;4.65;;;16.30;92.50;;;;;;4956895;28;20535;-68
2021/08/11 06:15:56;;;;;;;6.97;4.20;;;16.40;92.50;;;;;;4959625;28;20534;-68
2021/08/11 06:18:21;;;;;;;10.38;4.20;;;16.50;92.50;;;;;;4972751;28;20037;-68
2021/08/11 06:20:51;;;;;;;7.38;4.07;;;16.60;92.50;;;;;;4970545;28;20022;-68
2021/08/11 06:23:17;;;;;;;6.93;4.20;;;16.70;92.50;;;;;;4971044;28;20038;-68
2021/08/11 06:25:43;;;;;;;9.38;4.10;;;16.70;92.50;;;;;;4970959;28;20336;-69
2021/08/11 06:28:08;;;;;;;5.70;4.35;;;16.80;92.50;;;;;;4965886;28;20550;-68
2021/08/11 06:30:34;;;;;;;5.60;3.92;;;16.90;92.50;;;;;;4973174;28;20031;-68
2021/08/11 06:32:59;;;;;;;6.43;4.43;;;17.00;92.50;;;;;;4972883;28;20086;-68
2021/08/11 06:35:25;;;;;;;5.63;4.40;;;17.10;92.50;;;;;;4966573;28;20031;-68
2021/08/11 06:37:51;;;;;;;8.25;4.57;;;17.20;92.50;;;;;;4974529;28;20019;-70
2021/08/11 06:40:19;;;;;;;5.30;3.88;;;17.20;92.40;;;;;;4971434;28;20476;-68
2021/08/11 06:42:45;;;;;;;6.20;3.80;;;17.30;92.40;;;;;;4973033;28;20027;-68
2021/08/11 06:45:13;;;;;;;8.85;3.97;;;17.40;92.30;;;;;;4970726;28;20388;-67
2021/08/11 06:47:38;;;;;;;11.50;4.22;;;17.50;92.20;;;;;;4972780;28;20131;-70
2021/08/11 06:50:06;;;;;;;6.70;3.58;;;17.50;92.20;;;;;;4971551;28;20030;-69
2021/08/11 06:52:33;;;;;;;8.68;3.83;;;17.60;92.10;;;;;;4972672;28;20031;-71
2021/08/11 06:55:00;;;;;;;10.82;4.82;;;17.70;92.10;;;;;;4986298;28;20026;-69
2021/08/11 06:57:26;;;;;;;8.60;4.70;;;17.80;92.10;;;;;;4972577;28;20057;-71
2021/08/11 06:59:51;;;;;;;6.32;4.07;;;17.90;92.00;;;;;;4972093;28;20407;-71
2021/08/11 07:02:17;;;;;;;6.90;4.28;;;17.90;91.90;;;;;;4957075;28;20142;-71
2021/08/11 07:04:42;;;;;;;7.47;4.15;;;17.90;91.90;;;;;;4971463;28;20034;-70
2021/08/11 07:07:08;;;;;;;4.88;3.80;;;17.90;91.80;;;;;;4972012;28;20035;-70
2021/08/11 07:09:33;;;;;;;7.75;3.60;;;18.00;91.80;;;;;;4972219;28;20081;-70
2021/08/11 07:11:59;;;;;;;7.68;4.10;;;18.10;91.90;;;;;;4971311;28;20034;-70
2021/08/11 07:14:25;;;;;;;8.57;3.42;;;18.20;91.90;;;;;;4971772;28;20110;-70
2021/08/11 07:16:50;;;;;;;5.68;3.30;;;18.20;91.70;;;;;;4970961;28;20093;-70
2021/08/11 07:19:16;;;;;;;7.25;3.55;;;18.30;91.70;;;;;;4971609;28;20066;-70
2021/08/11 07:21:41;;;;;;;7.15;2.85;;;18.30;91.60;;;;;;4972137;28;20050;-71
2021/08/11 07:24:07;;;;;;;10.18;3.10;;;18.40;91.40;;;;;;4960567;28;20035;-70
2021/08/11 07:26:32;;;;;;;6.13;2.95;;;18.60;91.30;;;;;;4953466;28;20027;-70
2021/08/11 07:28:58;;;;;;;8.27;3.08;;;18.90;91.00;;;;;;4970857;28;20030;-71
2021/08/11 07:31:23;;;;;;;4.93;3.10;;;19.20;90.80;;;;;;4971750;28;20030;-71
2021/08/11 07:33:49;;;;;;;4.32;2.90;;;19.50;90.50;;;;;;4964995;28;20604;-71
2021/08/11 07:36:15;;;;;;;7.95;3.00;;;19.80;90.20;;;;;;4984800;28;20027;-70
2021/08/11 07:38:40;;;;;;;5.65;2.88;;;20.10;90.00;;;;;;4957497;28;20026;-71
2021/08/11 07:41:06;;;;;;;6.70;2.67;;;20.30;89.30;;;;;;4980792;28;20499;-70
2021/08/11 07:43:31;;;;;;;3.42;2.67;;;20.60;88.70;;;;;;4971879;28;20493;-70
2021/08/11 07:45:57;;;;;;;3.53;2.55;;;20.80;88.30;;;;;;4970719;28;20031;-71
2021/08/11 07:48:23;;;;;;;4.80;2.50;;;21.10;87.70;;;;;;4971199;28;20117;-71
2021/08/11 07:50:48;;;;;;;4.30;2.75;;;21.40;87.40;;;;;;5040283;23;20057;-88
2021/08/11 07:53:14;;;;;;;4.70;3.13;;;21.80;86.80;;;;;;5013176;28;20029;-88
2021/08/11 07:55:40;;;;;;;7.57;2.70;;;22.10;85.30;;;;;;4988582;28;20094;-88
2021/08/11 07:58:05;;;;;;;4.57;2.35;;;22.40;84.60;;;;;;4979778;28;20026;-86
2021/08/11 08:00:31;;;;;;;8.85;2.55;;;22.80;84.10;;;;;;4987816;28;20026;-88
2021/08/11 08:02:56;;;;;;;3.17;2.05;;;23.30;82.80;;;;;;4995147;28;20094;-87
2021/08/11 08:05:22;;;;;;;4.60;2.30;;;23.60;81.90;;;;;;4994181;28;20594;-87
2021/08/11 08:07:49;;;;;;;2.63;2.40;;;23.50;81.60;;;;;;4959892;28;20118;-88
2021/08/11 08:10:15;;;;;;;7.43;2.53;;;23.90;80.00;;;;;;4989827;28;20026;-87
2021/08/11 08:12:43;;;;;;;4.75;1.90;;;24.30;79.00;;;;;;4992310;28;20053;-88
2021/08/11 08:15:10;;;;;;;4.13;2.00;;;24.60;77.80;;;;;;5000669;28;20034;-89
2021/08/11 08:17:36;;;;;;;2.47;1.73;;;24.90;76.60;;;;;;4984536;28;20031;-88
2021/08/11 08:20:02;;;;;;;5.90;3.47;;;25.20;75.50;;;;;;4970964;28;20042;-88
2021/08/11 08:22:28;;;;;;;3.10;2.30;;;25.40;75.20;;;;;;4994120;28;20486;-87
2021/08/11 08:24:56;;;;;;;3.08;1.58;;;25.70;74.90;;;;;;5012303;28;20037;-88
2021/08/11 08:27:23;;;;;;;3.65;1.63;;;26.10;73.70;;;;;;4983643;28;20032;-89
2021/08/11 08:29:50;;;;;;;2.38;1.80;;;26.40;72.60;;;;;;4979017;28;20085;-88
2021/08/11 08:32:16;;;;;;;2.00;1.73;;;26.50;72.10;;;;;;4981870;28;20375;-90
2021/08/11 08:34:41;;;;;;;4.20;1.55;;;26.60;71.00;;;;;;4979145;28;20069;-90
2021/08/11 08:37:07;;;;;;;2.67;1.75;;;26.60;70.10;;;;;;4975968;28;20046;-91
2021/08/11 08:39:33;;;;;;;3.10;1.80;;;26.80;69.40;;;;;;4979640;28;20026;-88
2021/08/11 08:42:00;;;;;;;3.88;2.00;;;27.10;68.90;;;;;;4980389;28;20026;-89
2021/08/11 08:44:25;;;;;;;3.78;1.83;;;27.40;68.60;;;;;;4980006;28;20030;-89
2021/08/11 08:46:52;;;;;;;1.75;1.63;;;27.70;68.30;;;;;;4969536;28;20058;-89
2021/08/11 08:49:19;;;;;;;5.15;1.70;;;27.80;67.80;;;;;;4969002;28;20046;-90
2021/08/11 08:51:47;;;;;;;3.53;2.05;;;27.20;68.80;;;;;;4991653;28;20113;-89
2021/08/11 08:54:18;;;;;;;2.53;1.77;;;26.50;69.20;;;;;;4978096;28;20031;-88
2021/08/11 08:56:43;;;;;;;2.13;1.67;;;25.90;70.20;;;;;;4979061;28;20017;-90
2021/08/11 08:59:09;;;;;;;2.33;2.00;;;25.40;71.20;;;;;;4997440;28;20085;-89
2021/08/11 09:01:35;;;;;;;3.70;2.03;;;25.10;72.20;;;;;;5017563;28;20041;-90
2021/08/11 09:04:01;;;;;;;3.72;2.00;;;25.00;72.10;;;;;;5000774;28;20034;-87
2021/08/11 09:06:37;;;;;;;6.75;2.38;;;24.90;72.50;;;;;;4986935;28;20031;-88
2021/08/11 09:09:11;;;;;;;6.18;2.08;;;25.20;71.70;;;;;;4966956;28;20441;-88
2021/08/11 09:11:41;;;;;;;3.28;2.17;;;25.80;70.30;;;;;;4977405;28;20034;-89
2021/08/11 09:14:26;;;;;;;5.20;2.58;;;26.30;68.90;;;;;;4982941;28;20023;-88
2021/08/11 09:16:59;;;;;;;3.15;2.17;;;26.90;68.10;;;;;;4973461;28;20026;-89
2021/08/11 09:19:35;;;;;;;5.75;2.50;;;27.40;67.60;;;;;;4972221;28;20080;-88
2021/08/11 09:22:05;;;;;;;8.85;4.55;;;27.70;66.50;;;;;;4984803;28;20030;-88
2021/08/11 09:24:35;;;;;;;4.45;2.40;;;28.10;66.70;;;;;;4983411;28;20090;-87
2021/08/11 09:27:26;;;;;;;7.18;2.40;;;28.50;65.70;;;;;;4958588;28;20523;-87
2021/08/11 09:30:04;;;;;;;3.75;2.28;;;28.90;64.80;;;;;;4970976;28;20617;-87
2021/08/11 09:32:30;;;;;;;3.38;2.50;;;28.80;64.80;;;;;;4989522;28;20027;-87
2021/08/11 09:34:56;;;;;;;2.47;2.25;;;27.90;65.40;;;;;;4971982;28;20026;-87
2021/08/11 09:37:43;;;;;;;3.30;2.33;;;27.20;66.90;;;;;;4991050;28;20053;-89
2021/08/11 09:40:24;;;;;;;5.35;2.63;;;26.60;68.60;;;;;;4986686;28;20029;-89
2021/08/11 09:42:56;;;;;;;4.25;2.90;;;26.20;69.30;;;;;;4979958;28;20123;-90
2021/08/11 09:45:22;;;;;;;4.03;2.60;;;25.80;70.30;;;;;;5003041;28;20042;-89
2021/08/11 09:48:08;;;;;;;3.33;2.60;;;25.50;70.90;;;;;;4979974;28;20027;-88
2021/08/11 09:50:46;;;;;;;2.63;2.13;;;25.20;70.50;;;;;;4997300;28;20670;-88
2021/08/11 09:53:33;;;;;;;3.88;2.50;;;25.10;70.80;;;;;;4997409;28;20069;-87
2021/08/11 09:56:07;;;;;;;4.03;2.58;;;25.40;71.80;;;;;;4989524;28;20124;-89
2021/08/11 09:58:42;;;;;;;54.17;42.50;;;25.30;71.90;;;;;;4985062;28;20195;-89
2021/08/11 10:01:14;;;;;;;4.13;2.75;;;25.20;72.50;;;;;;4974483;28;20038;-87
2021/08/11 10:04:03;;;;;;;3.65;2.47;;;25.00;72.30;;;;;;4974389;28;20038;-88
2021/08/11 10:06:37;;;;;;;4.35;2.60;;;24.90;72.70;;;;;;4967656;28;20125;-89
2021/08/11 10:09:21;;;;;;;2.08;1.88;;;24.80;73.00;;;;;;4976465;28;20027;-90
2021/08/11 10:11:59;;;;;;;2.55;2.30;;;24.60;73.40;;;;;;4957465;28;20018;-90
2021/08/11 10:14:29;;;;;;;4.10;2.17;;;24.60;73.40;;;;;;4990098;28;20037;-90
2021/08/11 10:16:59;;;;;;;2.65;1.60;;;24.50;73.80;;;;;;4994373;28;20018;-90
2021/08/11 10:19:28;;;;;;;3.17;2.10;;;24.40;74.20;;;;;;4960273;28;20518;-90
2021/08/11 10:22:19;;;;;;;6.32;2.25;;;24.50;74.40;;;;;;4982341;28;20030;-92
2021/08/11 10:24:45;;;;;;;7.07;2.47;;;24.50;74.50;;;;;;4981128;28;20545;-88
2021/08/11 10:27:14;;;;;;;3.13;1.75;;;24.60;75.40;;;;;;4998837;28;20041;-89
2021/08/11 10:29:39;;;;;;;5.72;2.78;;;24.70;75.50;;;;;;4992483;28;20034;-88
2021/08/11 10:32:09;;;;;;;5.30;2.13;;;24.70;75.40;;;;;;4986849;28;20057;-94
2021/08/11 10:34:35;;;;;;;2.30;2.10;;;24.70;75.10;;;;;;4986532;28;20019;-89
2021/08/11 10:37:01;;;;;;;3.05;1.75;;;24.70;75.00;;;;;;4994480;28;20383;-91
2021/08/11 10:39:31;;;;;;;2.53;1.83;;;24.70;74.90;;;;;;4975521;28;20165;-90
2021/08/11 10:42:00;;;;;;;2.47;2.10;;;24.70;74.80;;;;;;4976893;28;20398;-91
2021/08/11 10:44:27;;;;;;;2.45;1.90;;;24.70;74.90;;;;;;4976691;28;20030;-90
2021/08/11 10:46:58;;;;;;;4.65;2.22;;;24.70;74.80;;;;;;4978623;28;20490;-90
2021/08/11 10:49:27;;;;;;;4.75;2.00;;;24.70;74.60;;;;;;4977351;28;20412;-92
2021/08/11 10:52:13;;;;;;;2.08;1.75;;;24.70;75.10;;;;;;4983579;28;20025;-90
2021/08/11 10:54:57;;;;;;;2.58;1.60;;;24.70;74.60;;;;;;4973559;28;20035;-89
2021/08/11 10:57:38;;;;;;;3.80;2.42;;;24.60;73.40;;;;;;4980109;28;20113;-88
2021/08/11 11:00:08;;;;;;;5.38;2.42;;;24.50;73.60;;;;;;4976972;28;20498;-88
2021/08/11 11:02:37;;;;;;;4.53;2.15;;;24.50;73.50;;;;;;4975561;28;20117;-87
2021/08/11 11:05:03;;;;;;;3.97;2.08;;;24.40;74.10;;;;;;4971207;28;20034;-88
2021/08/11 11:07:29;;;;;;;4.57;1.85;;;24.40;74.30;;;;;;4976791;28;20061;-89
2021/08/11 11:10:28;;;;;;;3.55;2.10;;;24.40;74.50;;;;;;4976436;28;20486;-89
2021/08/11 11:13:46;;;;;;;2.17;1.95;;;24.40;74.20;;;;;;4977523;28;20030;-93
2021/08/11 11:16:20;;;;;;;3.28;2.08;;;24.40;74.80;;;;;;4986498;28;20034;-92
2021/08/11 11:19:05;;;;;;;4.35;2.08;;;24.50;75.20;;;;;;4977444;28;20343;-89
2021/08/11 11:21:31;;;;;;;4.07;2.05;;;24.60;75.40;;;;;;5006452;28;20038;-91
2021/08/11 11:23:57;;;;;;;6.07;2.00;;;24.70;75.30;;;;;;4999108;28;20106;-90
2021/08/11 11:26:34;;;;;;;5.32;2.05;;;24.80;75.60;;;;;;4978071;28;20034;-89
2021/08/11 11:29:06;;;;;;;4.20;1.92;;;25.00;75.00;;;;;;4973822;28;20027;-89
2021/08/11 11:31:47;;;;;;;4.47;1.92;;;25.20;74.10;;;;;;4971758;28;20521;-89
2021/08/11 11:34:25;;;;;;;2.08;1.80;;;25.30;73.80;;;;;;4975325;28;20026;-90
2021/08/11 11:36:58;;;;;;;2.28;1.55;;;25.50;73.80;;;;;;4974326;28;20041;-90
2021/08/11 11:39:31;;;;;;;2.47;1.50;;;25.60;73.00;;;;;;4969804;28;20035;-90
2021/08/11 11:42:30;;;;;;;2.45;1.90;;;25.70;72.80;;;;;;4976832;28;20491;-90
2021/08/11 11:45:07;;;;;;;2.38;1.73;;;25.70;71.50;;;;;;4993935;28;20039;-91
2021/08/11 11:47:36;;;;;;;2.15;1.95;;;25.70;71.00;;;;;;4981299;28;20050;-91
2021/08/11 11:52:50;;;;;;;2.72;2.30;;;25.60;71.50;;;;;;5000185;28;20391;-91
2021/08/11 11:55:26;;;;;;;2.97;1.98;;;25.70;71.50;;;;;;4966756;28;20033;-90
2021/08/11 11:58:01;;;;;;;3.15;1.95;;;25.90;71.40;;;;;;4977976;28;20373;-90
2021/08/11 12:00:30;;;;;;;4.50;1.90;;;26.10;71.60;;;;;;4979888;28;20058;-92
2021/08/11 12:02:56;;;;;;;2.42;1.80;;;26.40;70.60;;;;;;4994170;23;20075;-68
2021/08/11 12:05:23;;;;;;;3.28;1.92;;;26.50;70.80;;;;;;5006539;28;20037;-67
2021/08/11 12:07:49;;;;;;;3.08;1.92;;;26.60;70.10;;;;;;4990950;28;20026;-68
2021/08/11 12:10:26;;;;;;;4.32;1.85;;;26.70;70.40;;;;;;4991289;28;20033;-67
2021/08/11 12:13:00;;;;;;;2.20;1.92;;;26.80;69.90;;;;;;5002096;28;20410;-67
2021/08/11 12:15:28;;;;;;;2.83;1.83;;;26.90;68.70;;;;;;4998291;28;20026;-67
2021/08/11 12:17:57;;;;;;;3.53;1.52;;;27.00;69.10;;;;;;4991176;28;20092;-67
2021/08/11 12:20:30;;;;;;;2.67;1.73;;;27.10;68.90;;;;;;4983501;28;20019;-67
2021/08/11 12:22:58;;;;;;;4.07;1.85;;;27.20;68.80;;;;;;4986218;28;20032;-67
2021/08/11 12:25:25;;;;;;;7.30;2.15;;;27.30;68.90;;;;;;4980809;28;20062;-67
2021/08/11 12:28:11;;;;;;;3.85;2.28;;;27.30;68.60;;;;;;4986124;28;20019;-67
2021/08/11 12:30:39;;;;;;;4.65;2.00;;;27.20;68.10;;;;;;4987018;28;20814;-67
2021/08/11 12:33:05;;;;;;;25.48;2.35;;;27.20;68.50;;;;;;4980680;28;20077;-67
2021/08/11 12:35:31;;;;;;;4.15;2.00;;;27.00;68.90;;;;;;4988135;28;20014;-67
2021/08/11 12:37:57;;;;;;;4.72;1.80;;;27.00;69.10;;;;;;4993536;28;20053;-67
2021/08/11 12:40:28;;;;;;;3.97;2.22;;;27.00;68.80;;;;;;4993885;28;20030;-67
2021/08/11 12:42:55;;;;;;;4.47;2.10;;;27.00;68.80;;;;;;4995014;28;20026;-67
2021/08/11 12:45:21;;;;;;;5.30;2.20;;;27.10;68.70;;;;;;4994042;28;20383;-67
2021/08/11 12:47:46;;;;;;;2.35;1.85;;;27.30;68.70;;;;;;4994803;28;20018;-67
2021/08/11 12:50:20;;;;;;;4.03;1.70;;;27.50;69.20;;;;;;4991279;28;20044;-64
2021/08/11 12:52:54;;;;;;;5.80;1.85;;;27.70;69.30;;;;;;4986881;28;20022;-65
2021/08/11 12:55:35;;;;;;;3.03;2.10;;;27.90;69.20;;;;;;4992401;28;20018;-66
2021/08/11 12:58:02;;;;;;;49.03;36.10;;;27.90;68.00;;;;;;4981747;28;20383;-67